Time;durP1;ratioP1;P1;durP2;ratioP2;P2;SDS_P1;SDS_P2;PMS_P1;PMS_P2;Temp;Humidity;BMP_temperature;BMP_pressure;BME280_temperature;BME280_humidity;BME280_pressure;Samples;Min_cycle;Max_cycle;Signal;HPM_P1;HPM_P2
2021/10/02 00:33:46;;;;;;;4.53;4.13;;;;;;;;;;5124598;27;24513;-60
2021/10/02 00:46:53;;;;;;;5.10;4.72;;;;;;;;;;5130159;27;24991;-60
2021/10/02 00:49:19;;;;;;;4.70;4.30;;;;;;;;;;5130405;27;24433;-59
2021/10/02 00:51:44;;;;;;;4.70;4.30;;;;;;;;;;5130278;27;25059;-60
2021/10/02 00:54:10;;;;;;;5.03;4.50;;;;;;;;;;5130105;27;24417;-60
2021/10/02 00:56:35;;;;;;;4.90;4.30;;;;;;;;;;5130272;27;24464;-59
2021/10/02 00:59:00;;;;;;;5.40;4.90;;;;;;;;;;5129245;27;24416;-60
2021/10/02 01:01:30;;;;;;;4.80;4.40;;;;;;;;;;5117897;27;24494;-59
2021/10/02 01:04:08;;;;;;;5.40;4.90;;;;;;;;;;5129752;27;24504;-60
2021/10/02 01:06:45;;;;;;;4.53;4.22;;;;;;;;;;5130192;27;24409;-59
2021/10/02 01:09:15;;;;;;;5.30;4.90;;;;;;;;;;5113709;27;24470;-59
2021/10/02 01:11:57;;;;;;;4.50;4.20;;;;;;;;;;5129026;27;24415;-59
2021/10/02 01:14:37;;;;;;;5.20;4.70;;;;;;;;;;5124150;27;24436;-59
2021/10/02 01:17:05;;;;;;;5.10;4.70;;;;;;;;;;5111174;27;24770;-59
2021/10/02 01:19:35;;;;;;;5.10;4.70;;;;;;;;;;5128360;27;24417;-60
2021/10/02 01:22:19;;;;;;;4.78;4.38;;;;;;;;;;5129476;27;24435;-60
2021/10/02 01:25:03;;;;;;;5.35;4.85;;;;;;;;;;5128510;27;24899;-59
2021/10/02 01:27:37;;;;;;;4.75;4.40;;;;;;;;;;5128899;27;24425;-58
2021/10/02 01:30:06;;;;;;;4.60;4.20;;;;;;;;;;5122314;27;24420;-59
2021/10/02 01:32:38;;;;;;;5.00;4.60;;;;;;;;;;5128676;27;25085;-59
2021/10/02 01:35:30;;;;;;;5.20;4.70;;;;;;;;;;5125919;27;24436;-59
2021/10/02 01:47:08;;;;;;;5.10;4.80;;;;;;;;;;5128936;27;24854;-59
2021/10/02 01:48:54;;;;;;;5.78;5.28;;;;;;;;;;5128337;27;24486;-60
2021/10/02 01:51:19;;;;;;;4.70;4.40;;;;;;;;;;5128359;27;25064;-60
2021/10/02 01:53:45;;;;;;;5.07;4.67;;;;;;;;;;5128462;27;24427;-60
2021/10/02 01:56:11;;;;;;;5.20;4.70;;;;;;;;;;5129063;27;25035;-59
2021/10/02 01:58:38;;;;;;;4.95;4.65;;;;;;;;;;5127999;27;24413;-60
2021/10/02 02:01:04;;;;;;;5.10;4.70;;;;;;;;;;5127963;27;24409;-60
2021/10/02 02:03:30;;;;;;;5.10;4.70;;;;;;;;;;5127936;27;24416;-59
2021/10/02 02:05:55;;;;;;;5.22;4.82;;;;;;;;;;5128687;27;24420;-60
2021/10/02 02:08:24;;;;;;;5.67;5.17;;;;;;;;;;5126875;27;24405;-60
2021/10/02 02:10:50;;;;;;;5.30;4.90;;;;;;;;;;5127998;27;24473;-60
2021/10/02 02:13:16;;;;;;;5.17;4.77;;;;;;;;;;5128063;27;24773;-60
2021/10/02 02:15:42;;;;;;;5.33;4.93;;;;;;;;;;5128204;27;25035;-60
2021/10/02 02:18:10;;;;;;;5.10;4.70;;;;;;;;;;5127978;27;24413;-61
2021/10/02 02:20:36;;;;;;;4.90;4.50;;;;;;;;;;5127538;27;24553;-60
2021/10/02 02:23:02;;;;;;;4.70;4.40;;;;;;;;;;5124594;27;24963;-61
2021/10/02 02:25:27;;;;;;;5.03;4.70;;;;;;;;;;5128224;27;24416;-61
2021/10/02 02:27:53;;;;;;;5.10;4.70;;;;;;;;;;5128335;27;24420;-61
2021/10/02 02:30:18;;;;;;;4.47;4.17;;;;;;;;;;5128197;27;24886;-61
2021/10/02 02:32:44;;;;;;;5.10;4.70;;;;;;;;;;5127673;27;24421;-60
2021/10/02 02:35:11;;;;;;;5.07;4.68;;;;;;;;;;5127812;27;24975;-60
2021/10/02 02:37:36;;;;;;;4.97;4.63;;;;;;;;;;5128158;27;24429;-60
2021/10/02 02:40:02;;;;;;;5.05;4.65;;;;;;;;;;5128202;27;24421;-60
2021/10/02 02:42:27;;;;;;;4.90;4.50;;;;;;;;;;5127958;27;24429;-61
2021/10/02 02:44:52;;;;;;;5.10;4.70;;;;;;;;;;5128119;27;24471;-60
2021/10/02 02:47:21;;;;;;;5.40;5.00;;;;;;;;;;5128009;27;24557;-60
2021/10/02 02:49:50;;;;;;;4.88;4.55;;;;;;;;;;5127809;27;24428;-60
2021/10/02 02:52:20;;;;;;;5.60;5.10;;;;;;;;;;5126557;27;24888;-60
2021/10/02 02:54:49;;;;;;;5.70;5.20;;;;;;;;;;5126626;27;24436;-58
2021/10/02 02:57:16;;;;;;;5.30;4.80;;;;;;;;;;5127861;27;25036;-58
2021/10/02 03:00:07;;;;;;;5.18;4.68;;;;;;;;;;5127355;27;24417;-58
2021/10/02 03:02:35;;;;;;;5.05;4.70;;;;;;;;;;5103008;27;24440;-61
2021/10/02 03:05:01;;;;;;;5.53;5.03;;;;;;;;;;5128068;27;24419;-59
2021/10/02 03:07:27;;;;;;;4.90;4.47;;;;;;;;;;5127966;27;24417;-59
2021/10/02 03:09:54;;;;;;;5.03;4.53;;;;;;;;;;5127164;27;26493;-61
2021/10/02 03:12:27;;;;;;;5.00;4.50;;;;;;;;;;5125505;27;24997;-61
2021/10/02 03:14:53;;;;;;;4.80;4.50;;;;;;;;;;5127121;27;24976;-61
2021/10/02 03:17:18;;;;;;;4.60;4.30;;;;;;;;;;5127779;27;24524;-60
2021/10/02 03:19:44;;;;;;;5.00;4.60;;;;;;;;;;5127612;27;24532;-60
2021/10/02 03:22:09;;;;;;;5.60;5.10;;;;;;;;;;5127380;27;24614;-61
2021/10/02 03:24:36;;;;;;;5.70;5.20;;;;;;;;;;5126761;27;25035;-61
2021/10/02 03:27:03;;;;;;;5.25;4.85;;;;;;;;;;5126449;27;24411;-61
2021/10/02 03:29:28;;;;;;;5.53;5.03;;;;;;;;;;5127362;27;24418;-61
2021/10/02 03:31:54;;;;;;;4.73;4.43;;;;;;;;;;5126914;27;24716;-60
2021/10/02 03:34:19;;;;;;;5.07;4.68;;;;;;;;;;5126398;27;24440;-61
2021/10/02 03:36:44;;;;;;;5.10;4.70;;;;;;;;;;5126843;27;24421;-61
2021/10/02 03:39:10;;;;;;;5.33;4.93;;;;;;;;;;5127547;28;24440;-59
2021/10/02 03:41:35;;;;;;;5.57;5.10;;;;;;;;;;5129327;27;24508;-59
2021/10/02 03:44:02;;;;;;;4.95;4.55;;;;;;;;;;5134231;27;25064;-59
2021/10/02 03:46:27;;;;;;;5.10;4.60;;;;;;;;;;5133369;27;24568;-60
2021/10/02 03:48:52;;;;;;;5.60;5.10;;;;;;;;;;5134602;27;24841;-59
2021/10/02 03:51:17;;;;;;;4.50;4.20;;;;;;;;;;5133443;27;24420;-60
2021/10/02 03:53:42;;;;;;;5.27;4.87;;;;;;;;;;5133967;27;24409;-59
2021/10/02 03:56:09;;;;;;;4.80;4.40;;;;;;;;;;5133565;27;24481;-59
2021/10/02 03:58:34;;;;;;;5.28;4.88;;;;;;;;;;5133684;27;24413;-59
2021/10/02 04:00:59;;;;;;;5.45;4.95;;;;;;;;;;5133949;27;24481;-59
2021/10/02 04:03:24;;;;;;;5.87;5.47;;;;;;;;;;5133870;27;24447;-60
2021/10/02 04:05:50;;;;;;;5.80;5.30;;;;;;;;;;5134388;27;24971;-60
2021/10/02 04:08:15;;;;;;;5.40;4.90;;;;;;;;;;5132520;27;24756;-60
2021/10/02 04:10:40;;;;;;;5.30;4.90;;;;;;;;;;5133780;27;25104;-60
2021/10/02 04:13:05;;;;;;;5.03;4.70;;;;;;;;;;5133248;27;24563;-60
2021/10/02 04:15:31;;;;;;;4.53;4.22;;;;;;;;;;5133307;27;24444;-60
2021/10/02 04:17:56;;;;;;;4.73;4.43;;;;;;;;;;5130522;27;25032;-60
2021/10/02 04:20:21;;;;;;;5.30;4.90;;;;;;;;;;5125415;27;24421;-60
2021/10/02 04:22:46;;;;;;;5.37;4.97;;;;;;;;;;5123822;27;24428;-60
2021/10/02 04:25:13;;;;;;;4.77;4.37;;;;;;;;;;5133094;27;24417;-60
2021/10/02 04:27:38;;;;;;;5.22;4.80;;;;;;;;;;5133346;27;24409;-60
2021/10/02 04:30:04;;;;;;;5.00;4.70;;;;;;;;;;5133740;27;24435;-59
2021/10/02 04:32:29;;;;;;;5.00;4.60;;;;;;;;;;5132996;27;24508;-60
2021/10/02 04:34:54;;;;;;;5.53;5.13;;;;;;;;;;5133391;27;24961;-59
2021/10/02 04:37:19;;;;;;;5.00;4.60;;;;;;;;;;5133550;27;25043;-60
2021/10/02 04:39:44;;;;;;;5.32;4.93;;;;;;;;;;5133256;27;24413;-60
2021/10/02 04:42:09;;;;;;;5.57;5.13;;;;;;;;;;5133225;27;24409;-59
2021/10/02 04:44:36;;;;;;;5.20;4.80;;;;;;;;;;5132503;27;24443;-59
2021/10/02 04:47:02;;;;;;;5.80;5.30;;;;;;;;;;5133207;27;24405;-59
2021/10/02 04:49:27;;;;;;;5.77;5.37;;;;;;;;;;5133175;27;24438;-60
2021/10/02 04:51:52;;;;;;;5.00;4.60;;;;;;;;;;5133088;27;24452;-60
2021/10/02 04:54:17;;;;;;;5.80;5.40;;;;;;;;;;5123576;27;24408;-60
2021/10/02 04:56:42;;;;;;;5.77;5.27;;;;;;;;;;5129770;27;24429;-61
2021/10/02 04:59:07;;;;;;;6.00;5.50;;;;;;;;;;5130628;27;24409;-60
2021/10/02 05:01:33;;;;;;;5.68;5.28;;;;;;;;;;5129472;27;24942;-60
2021/10/02 05:03:59;;;;;;;5.20;4.80;;;;;;;;;;5127296;27;24444;-60
2021/10/02 05:06:25;;;;;;;5.03;4.70;;;;;;;;;;5110420;28;24442;-60
2021/10/02 05:08:51;;;;;;;5.70;5.30;;;;;;;;;;5130398;27;24444;-60
2021/10/02 05:11:16;;;;;;;5.60;5.20;;;;;;;;;;5122578;27;24956;-60
2021/10/02 05:13:41;;;;;;;5.50;5.10;;;;;;;;;;5123861;27;24625;-60
2021/10/02 05:16:06;;;;;;;6.37;5.87;;;;;;;;;;5121669;27;24787;-60
2021/10/02 05:18:32;;;;;;;5.80;5.30;;;;;;;;;;5121005;27;24467;-60
2021/10/02 05:20:57;;;;;;;5.70;5.20;;;;;;;;;;5123486;27;24440;-61
2021/10/02 05:23:22;;;;;;;5.67;5.27;;;;;;;;;;5126139;27;24414;-60
2021/10/02 05:25:48;;;;;;;6.00;5.40;;;;;;;;;;5123788;27;24488;-64
2021/10/02 05:28:13;;;;;;;5.60;5.20;;;;;;;;;;5121984;27;24424;-59
2021/10/02 05:30:38;;;;;;;5.27;4.90;;;;;;;;;;5121440;27;24483;-59
2021/10/02 05:33:03;;;;;;;5.43;5.00;;;;;;;;;;5122350;27;24420;-59
2021/10/02 05:35:29;;;;;;;5.90;5.40;;;;;;;;;;5112256;27;24956;-59
2021/10/02 05:37:55;;;;;;;5.80;5.30;;;;;;;;;;5106556;27;24575;-59
2021/10/02 05:40:20;;;;;;;5.50;5.10;;;;;;;;;;5122914;27;24582;-59
2021/10/02 05:42:45;;;;;;;6.00;5.40;;;;;;;;;;5122059;27;24466;-59
2021/10/02 05:45:10;;;;;;;6.60;6.10;;;;;;;;;;5119826;27;24416;-60
2021/10/02 05:47:35;;;;;;;5.60;5.20;;;;;;;;;;5118934;27;24397;-59
2021/10/02 05:50:00;;;;;;;6.70;5.60;;;;;;;;;;5122721;27;24669;-59
2021/10/02 05:52:26;;;;;;;6.07;5.57;;;;;;;;;;5125043;27;24400;-59
2021/10/02 05:54:51;;;;;;;5.60;5.20;;;;;;;;;;5122983;27;24976;-59
2021/10/02 05:57:17;;;;;;;5.10;4.80;;;;;;;;;;5124730;27;24429;-60
2021/10/02 05:59:43;;;;;;;5.90;5.50;;;;;;;;;;5116950;27;24475;-59
2021/10/02 06:02:08;;;;;;;6.10;5.70;;;;;;;;;;5111336;27;24434;-59
2021/10/02 06:04:33;;;;;;;5.78;5.28;;;;;;;;;;5115614;27;24481;-60
2021/10/02 06:06:58;;;;;;;5.77;5.37;;;;;;;;;;5122808;27;24421;-60
2021/10/02 06:09:23;;;;;;;6.18;5.60;;;;;;;;;;5126747;27;24470;-60
2021/10/02 06:11:48;;;;;;;6.33;5.83;;;;;;;;;;5124304;27;24410;-60
2021/10/02 06:14:13;;;;;;;6.10;5.60;;;;;;;;;;5121959;27;24500;-60
2021/10/02 06:16:39;;;;;;;6.28;5.78;;;;;;;;;;5128188;27;24437;-60
2021/10/02 06:19:05;;;;;;;5.67;5.23;;;;;;;;;;5121721;27;24976;-60
2021/10/02 06:21:30;;;;;;;6.25;5.75;;;;;;;;;;5124973;27;24413;-61
2021/10/02 06:23:58;;;;;;;6.00;5.50;;;;;;;;;;5128470;27;24427;-61
2021/10/02 06:26:24;;;;;;;5.70;5.20;;;;;;;;;;5129029;27;24436;-61
2021/10/02 06:28:49;;;;;;;5.80;5.40;;;;;;;;;;5128514;27;25003;-61
2021/10/02 06:31:14;;;;;;;6.05;5.55;;;;;;;;;;5128571;27;24443;-60
2021/10/02 06:33:40;;;;;;;6.05;5.55;;;;;;;;;;5126280;27;24785;-60
2021/10/02 06:36:05;;;;;;;5.80;5.40;;;;;;;;;;5127268;27;24416;-61
2021/10/02 06:38:30;;;;;;;6.30;5.90;;;;;;;;;;5127915;27;24826;-61
2021/10/02 06:40:55;;;;;;;6.20;5.70;;;;;;;;;;5127966;27;24409;-60
2021/10/02 06:43:20;;;;;;;5.90;5.50;;;;;;;;;;5123250;27;24439;-61
2021/10/02 06:45:45;;;;;;;6.50;6.00;;;;;;;;;;5126327;27;24451;-61
2021/10/02 06:48:11;;;;;;;5.72;5.22;;;;;;;;;;5126743;27;24424;-61
2021/10/02 06:50:36;;;;;;;6.30;5.80;;;;;;;;;;5123498;27;24517;-61
2021/10/02 06:53:02;;;;;;;5.83;5.43;;;;;;;;;;5127566;27;24829;-60
2021/10/02 06:55:27;;;;;;;5.57;5.13;;;;;;;;;;5127702;27;24456;-61
2021/10/02 06:57:52;;;;;;;6.00;5.50;;;;;;;;;;5126157;27;24409;-60
2021/10/02 07:00:17;;;;;;;5.87;5.37;;;;;;;;;;5123996;27;24458;-60
2021/10/02 07:02:43;;;;;;;5.90;5.40;;;;;;;;;;5127272;27;24405;-62
2021/10/02 07:05:10;;;;;;;5.80;5.30;;;;;;;;;;5127877;27;24416;-61
2021/10/02 07:07:35;;;;;;;6.15;5.60;;;;;;;;;;5123120;27;25000;-61
2021/10/02 07:10:00;;;;;;;5.50;5.10;;;;;;;;;;5115292;27;24442;-59
2021/10/02 07:12:25;;;;;;;6.32;5.82;;;;;;;;;;5116083;27;24524;-60
2021/10/02 07:14:50;;;;;;;5.28;4.88;;;;;;;;;;5117636;27;25011;-59
2021/10/02 07:17:15;;;;;;;5.70;5.20;;;;;;;;;;5108875;27;24413;-59
2021/10/02 07:19:40;;;;;;;5.70;5.20;;;;;;;;;;5118221;27;25055;-59
2021/10/02 07:22:06;;;;;;;6.07;5.57;;;;;;;;;;5118345;27;24962;-60
2021/10/02 07:24:31;;;;;;;6.30;5.80;;;;;;;;;;5118583;27;24968;-60
2021/10/02 07:26:57;;;;;;;5.40;5.00;;;;;;;;;;5121572;27;24413;-62
2021/10/02 07:29:22;;;;;;;5.93;5.47;;;;;;;;;;5113412;27;24412;-62
2021/10/02 07:31:48;;;;;;;5.67;5.20;;;;;;;;;;5113360;27;24439;-62
2021/10/02 07:34:13;;;;;;;5.25;4.85;;;;;;;;;;5119060;27;24480;-60
2021/10/02 07:36:39;;;;;;;5.60;5.20;;;;;;;;;;5107580;27;24514;-59
2021/10/02 07:39:04;;;;;;;6.00;5.50;;;;;;;;;;5122725;27;24953;-60
2021/10/02 07:41:29;;;;;;;6.00;5.50;;;;;;;;;;5123493;28;24426;-60
2021/10/02 07:43:56;;;;;;;5.90;5.50;;;;;;;;;;5121732;28;24417;-60
2021/10/02 07:46:21;;;;;;;5.80;5.30;;;;;;;;;;5118259;28;24944;-60
2021/10/02 07:48:48;;;;;;;5.00;4.60;;;;;;;;;;5120063;28;24465;-59
2021/10/02 07:51:14;;;;;;;5.82;5.32;;;;;;;;;;5103176;28;24385;-61
2021/10/02 07:53:40;;;;;;;6.10;5.60;;;;;;;;;;5112108;28;25340;-61
2021/10/02 07:56:06;;;;;;;5.90;5.40;;;;;;;;;;5101924;28;24433;-62
2021/10/02 07:58:32;;;;;;;5.33;4.83;;;;;;;;;;5119502;28;24485;-60
2021/10/02 08:00:57;;;;;;;6.00;5.50;;;;;;;;;;5119101;28;24401;-60
2021/10/02 08:03:23;;;;;;;5.87;5.37;;;;;;;;;;5118678;28;24473;-60
2021/10/02 08:05:50;;;;;;;6.20;5.70;;;;;;;;;;5123317;28;24446;-59
2021/10/02 08:08:16;;;;;;;6.13;5.63;;;;;;;;;;5122863;28;24443;-60
2021/10/02 08:10:41;;;;;;;5.80;5.30;;;;;;;;;;5121646;28;24500;-59
2021/10/02 08:13:07;;;;;;;5.97;5.50;;;;;;;;;;5116916;28;24409;-59
2021/10/02 08:15:32;;;;;;;5.10;4.70;;;;;;;;;;5119315;27;25351;-61
2021/10/02 08:17:59;;;;;;;5.80;5.40;;;;;;;;;;5121374;28;24406;-61
2021/10/02 08:20:24;;;;;;;5.40;5.00;;;;;;;;;;5123042;28;24455;-61
2021/10/02 08:22:52;;;;;;;5.70;5.23;;;;;;;;;;5119510;28;24417;-59
2021/10/02 08:25:18;;;;;;;5.93;5.50;;;;;;;;;;5101418;28;24539;-59
2021/10/02 08:27:44;;;;;;;4.73;4.43;;;;;;;;;;5104952;27;24508;-60
2021/10/02 08:30:11;;;;;;;5.63;5.22;;;;;;;;;;5120770;27;24409;-60
2021/10/02 08:32:36;;;;;;;5.70;5.20;;;;;;;;;;5124335;27;24414;-59
2021/10/02 08:35:02;;;;;;;6.20;5.67;;;;;;;;;;5126566;27;24549;-62
2021/10/02 08:37:28;;;;;;;6.18;5.68;;;;;;;;;;5125782;27;24433;-59
2021/10/02 08:39:53;;;;;;;6.43;5.90;;;;;;;;;;5123974;27;24410;-60
2021/10/02 08:42:19;;;;;;;5.00;4.60;;;;;;;;;;5124230;27;24474;-60
2021/10/02 08:44:45;;;;;;;6.22;5.72;;;;;;;;;;5122487;27;24496;-60
2021/10/02 08:47:11;;;;;;;5.60;5.20;;;;;;;;;;5126396;27;24392;-60
2021/10/02 08:49:39;;;;;;;6.20;5.70;;;;;;;;;;5125898;27;24409;-60
2021/10/02 08:52:04;;;;;;;5.63;5.13;;;;;;;;;;5123072;27;24809;-60
2021/10/02 08:54:33;;;;;;;6.00;5.50;;;;;;;;;;5120909;27;24481;-60
2021/10/02 08:56:58;;;;;;;6.00;5.50;;;;;;;;;;5126009;27;24417;-60
2021/10/02 08:59:24;;;;;;;5.47;5.07;;;;;;;;;;5123136;27;24436;-61
2021/10/02 09:01:49;;;;;;;6.10;5.60;;;;;;;;;;5106721;27;24500;-61
2021/10/02 09:04:15;;;;;;;5.00;4.70;;;;;;;;;;5117371;27;24402;-61
2021/10/02 09:06:40;;;;;;;5.57;5.17;;;;;;;;;;5105424;28;24429;-61
2021/10/02 09:09:06;;;;;;;5.60;5.10;;;;;;;;;;5120251;27;24421;-59
2021/10/02 09:11:32;;;;;;;5.60;5.20;;;;;;;;;;5126306;27;24469;-59
2021/10/02 09:13:57;;;;;;;6.10;5.60;;;;;;;;;;5121293;27;24948;-59
2021/10/02 09:16:22;;;;;;;7.20;5.70;;;;;;;;;;5117830;27;24466;-60
2021/10/02 09:18:48;;;;;;;5.77;5.27;;;;;;;;;;5114997;27;24454;-60
2021/10/02 09:21:13;;;;;;;4.83;4.47;;;;;;;;;;5125398;27;24776;-60
2021/10/02 09:23:47;;;;;;;5.45;4.95;;;;;;;;;;5122759;27;24450;-60
2021/10/02 09:26:12;;;;;;;5.43;4.93;;;;;;;;;;5126134;27;24385;-61
2021/10/02 09:28:49;;;;;;;5.22;4.82;;;;;;;;;;5119332;27;25213;-60
2021/10/02 09:31:15;;;;;;;5.72;5.32;;;;;;;;;;5121578;27;24975;-60
2021/10/02 09:33:47;;;;;;;5.07;4.68;;;;;;;;;;5122174;27;24443;-60
2021/10/02 09:36:22;;;;;;;5.10;4.60;;;;;;;;;;5125471;27;24494;-60
2021/10/02 09:38:51;;;;;;;4.80;4.40;;;;;;;;;;5122850;27;24395;-60
2021/10/02 09:41:16;;;;;;;5.07;4.70;;;;;;;;;;5120206;27;24408;-59
2021/10/02 09:43:52;;;;;;;4.60;4.20;;;;;;;;;;5118522;27;25000;-59
2021/10/02 09:46:30;;;;;;;4.70;4.30;;;;;;;;;;5104713;28;24435;-60
2021/10/02 09:48:55;;;;;;;5.28;4.78;;;;;;;;;;5121907;27;24991;-60
2021/10/02 09:51:20;;;;;;;5.20;4.80;;;;;;;;;;5116427;27;24457;-60
2021/10/02 09:53:46;;;;;;;3.90;3.60;;;;;;;;;;5121278;27;25244;-60
2021/10/02 09:56:13;;;;;;;4.63;4.32;;;;;;;;;;5123212;27;24543;-60
2021/10/02 09:58:38;;;;;;;4.90;4.40;;;;;;;;;;5119229;27;24406;-59
2021/10/02 10:01:08;;;;;;;4.50;4.10;;;;;;;;;;5124217;27;24454;-61
2021/10/02 10:03:44;;;;;;;5.43;4.93;;;;;;;;;;5123744;27;24409;-62
2021/10/02 10:06:35;;;;;;;4.82;4.43;;;;;;;;;;5119797;27;24525;-61
2021/10/02 10:09:10;;;;;;;4.82;4.43;;;;;;;;;;5116104;27;24789;-60
2021/10/02 10:11:49;;;;;;;4.60;4.20;;;;;;;;;;5123510;27;24421;-60
2021/10/02 10:14:19;;;;;;;4.77;4.37;;;;;;;;;;5120798;27;25049;-60
2021/10/02 10:16:44;;;;;;;4.50;4.18;;;;;;;;;;5106347;27;24467;-60
2021/10/02 10:19:15;;;;;;;5.20;4.80;;;;;;;;;;5119968;27;24979;-59
2021/10/02 10:21:41;;;;;;;6.63;5.20;;;;;;;;;;5119810;27;24413;-59
2021/10/02 10:24:06;;;;;;;4.18;3.88;;;;;;;;;;5121754;27;24424;-60
2021/10/02 10:26:31;;;;;;;4.83;4.43;;;;;;;;;;5116644;27;24486;-60
2021/10/02 10:29:01;;;;;;;4.40;4.10;;;;;;;;;;5123170;27;24420;-60
2021/10/02 10:31:26;;;;;;;4.70;4.30;;;;;;;;;;5122711;27;24447;-60
2021/10/02 10:33:56;;;;;;;4.70;4.30;;;;;;;;;;5121719;27;24537;-60
2021/10/02 10:36:22;;;;;;;4.35;3.95;;;;;;;;;;5121922;27;24432;-60
2021/10/02 10:38:49;;;;;;;4.47;4.07;;;;;;;;;;5127203;27;24696;-61
2021/10/02 10:41:15;;;;;;;4.80;4.40;;;;;;;;;;5128262;27;24983;-60
2021/10/02 10:43:40;;;;;;;4.20;3.80;;;;;;;;;;5127542;27;24413;-60
2021/10/02 10:46:07;;;;;;;5.70;4.23;;;;;;;;;;5127532;27;24998;-61
2021/10/02 10:48:32;;;;;;;4.30;4.00;;;;;;;;;;5127717;27;24485;-61
2021/10/02 10:51:09;;;;;;;4.95;4.55;;;;;;;;;;5115552;27;24513;-62
2021/10/02 10:53:35;;;;;;;4.80;4.40;;;;;;;;;;5121721;27;25051;-61
2021/10/02 10:56:01;;;;;;;4.30;3.90;;;;;;;;;;5120025;27;25233;-60
2021/10/02 10:58:29;;;;;;;4.60;4.30;;;;;;;;;;5121843;27;24420;-60
2021/10/02 11:00:55;;;;;;;4.33;4.03;;;;;;;;;;5120138;27;24465;-60
2021/10/02 11:03:33;;;;;;;4.73;4.33;;;;;;;;;;5120756;27;24517;-60
2021/10/02 11:05:58;;;;;;;5.00;4.70;;;;;;;;;;5114855;27;25110;-60
2021/10/02 11:08:43;;;;;;;4.90;4.50;;;;;;;;;;5122920;27;24417;-60
2021/10/02 11:11:09;;;;;;;4.70;4.30;;;;;;;;;;5102651;28;24410;-61
2021/10/02 11:13:34;;;;;;;4.30;3.90;;;;;;;;;;5104909;27;24412;-61
2021/10/02 11:16:19;;;;;;;4.60;4.20;;;;;;;;;;5118025;27;24433;-59
2021/10/02 11:18:47;;;;;;;4.10;3.80;;;;;;;;;;5110562;27;24428;-60
2021/10/02 11:21:17;;;;;;;4.30;4.00;;;;;;;;;;5118854;27;24536;-60
2021/10/02 11:24:03;;;;;;;4.80;4.40;;;;;;;;;;5123396;27;24405;-60
2021/10/02 11:26:37;;;;;;;4.63;4.22;;;;;;;;;;5124181;27;24480;-60
2021/10/02 11:29:03;;;;;;;4.32;3.95;;;;;;;;;;5116619;27;25056;-59
2021/10/02 11:31:29;;;;;;;4.38;4.05;;;;;;;;;;5122700;27;24990;-59
2021/10/02 11:33:55;;;;;;;5.50;5.00;;;;;;;;;;5123476;27;24425;-60
2021/10/02 11:36:31;;;;;;;4.43;4.03;;;;;;;;;;5123689;27;24978;-61
2021/10/02 11:39:10;;;;;;;5.07;4.57;;;;;;;;;;5122931;27;24450;-60
2021/10/02 11:41:36;;;;;;;4.63;4.30;;;;;;;;;;5123330;28;24425;-61
2021/10/02 11:44:02;;;;;;;4.38;4.07;;;;;;;;;;5123057;28;24538;-61
2021/10/02 11:46:27;;;;;;;4.35;4.03;;;;;;;;;;5104647;28;24500;-61
2021/10/02 11:48:52;;;;;;;4.37;4.00;;;;;;;;;;5116868;28;24421;-61
2021/10/02 11:51:17;;;;;;;4.90;4.50;;;;;;;;;;5123598;28;24438;-62
2021/10/02 11:53:53;;;;;;;5.50;4.15;;;;;;;;;;5123590;28;24443;-61
2021/10/02 11:56:21;;;;;;;4.60;4.20;;;;;;;;;;5122705;28;24429;-63
2021/10/02 11:58:47;;;;;;;4.38;3.90;;;;;;;;;;5121173;28;24594;-60
2021/10/02 12:01:17;;;;;;;4.80;4.10;;;;;;;;;;5120254;28;24474;-61
2021/10/02 12:03:42;;;;;;;4.15;3.85;;;;;;;;;;5125722;27;24421;-61
2021/10/02 12:06:07;;;;;;;4.07;3.77;;;;;;;;;;5125685;27;24506;-62
2021/10/02 12:08:33;;;;;;;4.20;3.80;;;;;;;;;;5124034;27;24409;-61
2021/10/02 12:11:03;;;;;;;4.40;4.10;;;;;;;;;;5128030;27;24500;-62
2021/10/02 12:13:43;;;;;;;4.43;3.95;;;;;;;;;;5124169;27;25015;-61
2021/10/02 12:16:37;;;;;;;4.50;4.00;;;;;;;;;;5123301;27;24436;-62
2021/10/02 12:19:07;;;;;;;3.60;3.30;;;;;;;;;;5105581;27;24461;-60
2021/10/02 12:21:34;;;;;;;3.80;3.40;;;;;;;;;;5127763;27;24417;-60
2021/10/02 12:24:06;;;;;;;3.70;3.40;;;;;;;;;;5108544;27;24785;-60
2021/10/02 12:26:35;;;;;;;3.40;3.20;;;;;;;;;;5108048;27;24444;-61
2021/10/02 12:29:02;;;;;;;3.90;3.60;;;;;;;;;;5126984;27;24407;-60
2021/10/02 12:31:39;;;;;;;3.47;3.00;;;;;;;;;;5125886;27;24457;-62
2021/10/02 12:34:08;;;;;;;3.00;2.80;;;;;;;;;;5121421;27;24784;-60
2021/10/02 12:36:40;;;;;;;3.40;3.10;;;;;;;;;;5124921;27;24960;-62
2021/10/02 12:39:06;;;;;;;2.90;2.70;;;;;;;;;;5125065;27;24548;-61
2021/10/02 12:41:39;;;;;;;2.80;2.60;;;;;;;;;;5127846;27;24409;-61
2021/10/02 12:44:04;;;;;;;2.60;2.40;;;;;;;;;;5127534;27;24994;-61
2021/10/02 12:46:29;;;;;;;3.00;2.80;;;;;;;;;;5123650;27;24433;-61
2021/10/02 12:49:03;;;;;;;2.80;2.60;;;;;;;;;;5128316;27;24420;-60
2021/10/02 12:51:29;;;;;;;4.13;3.33;;;;;;;;;;5123342;27;24448;-60
2021/10/02 12:53:54;;;;;;;3.80;3.50;;;;;;;;;;5125259;27;24460;-60
2021/10/02 12:56:19;;;;;;;3.50;3.20;;;;;;;;;;5111652;27;24429;-61
2021/10/02 12:58:57;;;;;;;3.50;3.00;;;;;;;;;;5111643;27;24421;-60
2021/10/02 13:01:22;;;;;;;3.73;3.43;;;;;;;;;;5126317;27;24477;-60
2021/10/02 13:03:48;;;;;;;4.50;4.03;;;;;;;;;;5123742;27;24705;-61
2021/10/02 13:06:13;;;;;;;3.88;3.40;;;;;;;;;;5124644;27;24424;-60
2021/10/02 13:08:38;;;;;;;3.78;3.47;;;;;;;;;;5120849;27;24510;-59
2021/10/02 13:11:03;;;;;;;3.65;3.35;;;;;;;;;;5126584;27;24393;-60
2021/10/02 13:13:29;;;;;;;3.70;3.40;;;;;;;;;;5125743;27;24416;-59
2021/10/02 13:15:55;;;;;;;3.50;3.20;;;;;;;;;;5123251;27;24465;-59
2021/10/02 13:18:23;;;;;;;3.60;3.30;;;;;;;;;;5122148;27;24392;-59
2021/10/02 13:20:53;;;;;;;3.80;3.35;;;;;;;;;;5122041;27;24787;-59
2021/10/02 13:23:27;;;;;;;4.40;4.00;;;;;;;;;;5125522;27;24417;-59
2021/10/02 13:25:53;;;;;;;4.00;3.60;;;;;;;;;;5124513;27;24469;-59
2021/10/02 13:28:20;;;;;;;4.10;3.70;;;;;;;;;;5122429;27;24984;-59
2021/10/02 13:30:45;;;;;;;3.67;3.40;;;;;;;;;;5120324;27;24495;-59
2021/10/02 13:33:14;;;;;;;4.20;3.80;;;;;;;;;;5121907;27;24420;-59
2021/10/02 13:35:41;;;;;;;4.13;3.70;;;;;;;;;;5121785;27;24393;-59
2021/10/02 13:38:09;;;;;;;4.55;4.15;;;;;;;;;;5125903;27;24393;-59
2021/10/02 13:40:35;;;;;;;4.30;4.00;;;;;;;;;;5123622;27;24396;-59
2021/10/02 13:43:01;;;;;;;4.30;3.90;;;;;;;;;;5117871;27;24452;-59
2021/10/02 13:45:27;;;;;;;5.05;4.20;;;;;;;;;;5117301;27;24425;-58
2021/10/02 13:47:54;;;;;;;4.57;4.10;;;;;;;;;;5119570;27;24465;-59
2021/10/02 13:50:19;;;;;;;4.28;3.88;;;;;;;;;;5101706;28;24581;-59
2021/10/02 13:52:45;;;;;;;4.60;4.20;;;;;;;;;;5120195;27;24985;-59
2021/10/02 13:55:10;;;;;;;4.15;3.83;;;;;;;;;;5125747;27;24424;-59
2021/10/02 13:57:36;;;;;;;4.10;3.70;;;;;;;;;;5123293;27;24472;-59
2021/10/02 14:00:01;;;;;;;5.90;4.50;;;;;;;;;;5123633;27;24500;-59
2021/10/02 14:02:26;;;;;;;4.85;4.45;;;;;;;;;;5121507;27;25132;-59
2021/10/02 14:04:51;;;;;;;4.30;4.00;;;;;;;;;;5119206;27;24401;-60
2021/10/02 14:07:16;;;;;;;4.50;4.10;;;;;;;;;;5121733;27;24393;-59
2021/10/02 14:09:41;;;;;;;3.70;3.40;;;;;;;;;;5122740;27;24381;-59
2021/10/02 14:12:07;;;;;;;3.90;3.10;;;;;;;;;;5124745;27;24517;-59
2021/10/02 14:14:32;;;;;;;4.05;3.75;;;;;;;;;;5124263;27;24757;-59
2021/10/02 14:16:58;;;;;;;4.77;4.37;;;;;;;;;;5122665;27;24409;-60
2021/10/02 14:19:23;;;;;;;5.20;4.70;;;;;;;;;;5120533;27;24496;-59
2021/10/02 14:21:48;;;;;;;4.22;3.92;;;;;;;;;;5120649;27;24481;-59
2021/10/02 14:24:13;;;;;;;4.70;4.33;;;;;;;;;;5124784;27;24412;-58
2021/10/02 14:26:38;;;;;;;4.47;4.18;;;;;;;;;;5122520;27;24534;-60
2021/10/02 14:29:03;;;;;;;4.90;4.50;;;;;;;;;;5122929;27;24397;-61
2021/10/02 14:31:28;;;;;;;4.60;4.20;;;;;;;;;;5120567;27;24404;-61
2021/10/02 14:33:54;;;;;;;5.00;4.50;;;;;;;;;;5118569;27;24485;-61
2021/10/02 14:36:19;;;;;;;4.20;3.80;;;;;;;;;;5121219;27;24939;-59
2021/10/02 14:38:44;;;;;;;4.40;4.00;;;;;;;;;;5122587;27;24392;-59
2021/10/02 14:41:09;;;;;;;4.10;3.80;;;;;;;;;;5124449;27;24492;-59
2021/10/02 14:43:36;;;;;;;4.73;4.33;;;;;;;;;;5122300;27;24450;-61
2021/10/02 14:46:01;;;;;;;3.88;3.58;;;;;;;;;;5119128;27;25190;-62
2021/10/02 14:48:26;;;;;;;4.50;4.20;;;;;;;;;;5120243;27;24434;-61
2021/10/02 14:50:52;;;;;;;4.22;3.92;;;;;;;;;;5120861;27;24741;-61
2021/10/02 14:53:18;;;;;;;4.60;4.20;;;;;;;;;;5122376;27;24385;-60
2021/10/02 14:55:45;;;;;;;4.60;4.20;;;;;;;;;;5122110;27;24834;-60
2021/10/02 14:58:10;;;;;;;4.95;4.45;;;;;;;;;;5122252;27;24420;-59
2021/10/02 15:00:35;;;;;;;5.40;5.00;;;;;;;;;;5120531;27;24392;-59
2021/10/02 15:03:01;;;;;;;5.85;5.30;;;;;;;;;;5118757;27;24866;-58
2021/10/02 15:05:26;;;;;;;5.50;5.00;;;;;;;;;;5117957;27;24788;-58
2021/10/02 15:07:53;;;;;;;5.20;4.80;;;;;;;;;;5124114;27;24381;-59
2021/10/02 15:10:19;;;;;;;6.97;6.38;;;;;;;;;;5124327;27;25033;-59
2021/10/02 15:12:44;;;;;;;6.20;5.70;;;;;;;;;;5120237;27;25285;-58
2021/10/02 15:15:10;;;;;;;5.00;4.60;;;;;;;;;;5117965;27;24427;-57
2021/10/02 15:17:35;;;;;;;5.50;5.10;;;;;;;;;;5108552;27;24547;-57
2021/10/02 15:20:00;;;;;;;6.00;5.50;;;;;;;;;;5123694;27;24396;-61
2021/10/02 15:22:26;;;;;;;5.00;4.60;;;;;;;;;;5123244;27;24947;-61
2021/10/02 15:24:59;;;;;;;5.97;5.57;;;;;;;;;;5121176;27;24411;-61
2021/10/02 15:27:28;;;;;;;7.00;6.50;;;;;;;;;;5113051;27;24996;-58
2021/10/02 15:29:54;;;;;;;6.22;5.72;;;;;;;;;;5116858;27;24409;-61
2021/10/02 15:32:20;;;;;;;6.38;5.88;;;;;;;;;;5124792;27;24453;-59
2021/10/02 15:34:45;;;;;;;6.55;6.10;;;;;;;;;;5127554;27;25324;-59